sensor_id;sensor_type;location;lat;lon;timestamp;temperature;humidity
81307;DHT22;70775;50.846;3.224;2023-10-31T00:00:16;11.40;99.90
81307;DHT22;70775;50.846;3.224;2023-10-31T00:02:42;11.30;99.90
81307;DHT22;70775;50.846;3.224;2023-10-31T00:05:08;11.40;99.90
81307;DHT22;70775;50.846;3.224;2023-10-31T00:07:34;11.30;99.90
81307;DHT22;70775;50.846;3.224;2023-10-31T00:09:59;11.30;99.90
81307;DHT22;70775;50.846;3.224;2023-10-31T00:12:25;11.30;99.90
81307;DHT22;70775;50.846;3.224;2023-10-31T00:14:50;11.30;99.90
81307;DHT22;70775;50.846;3.224;2023-10-31T00:17:16;11.30;99.90
81307;DHT22;70775;50.846;3.224;2023-10-31T00:19:42;11.30;99.90
81307;DHT22;70775;50.846;3.224;2023-10-31T00:22:07;11.30;99.90
81307;DHT22;70775;50.846;3.224;2023-10-31T00:24:33;11.30;99.90
81307;DHT22;70775;50.846;3.224;2023-10-31T00:26:58;11.20;99.90
81307;DHT22;70775;50.846;3.224;2023-10-31T00:29:24;11.30;99.90
81307;DHT22;70775;50.846;3.224;2023-10-31T00:31:50;11.30;99.90
81307;DHT22;70775;50.846;3.224;2023-10-31T00:34:15;11.40;99.90
81307;DHT22;70775;50.846;3.224;2023-10-31T00:36:41;11.40;99.90
81307;DHT22;70775;50.846;3.224;2023-10-31T00:39:07;11.40;99.90
81307;DHT22;70775;50.846;3.224;2023-10-31T00:41:32;11.40;99.90
81307;DHT22;70775;50.846;3.224;2023-10-31T00:43:58;11.40;99.90
81307;DHT22;70775;50.846;3.224;2023-10-31T00:46:24;11.40;99.90
81307;DHT22;70775;50.846;3.224;2023-10-31T00:48:50;11.30;99.90
81307;DHT22;70775;50.846;3.224;2023-10-31T00:51:15;11.20;99.90
81307;DHT22;70775;50.846;3.224;2023-10-31T00:53:41;11.10;99.90
81307;DHT22;70775;50.846;3.224;2023-10-31T00:56:07;11.00;99.90
81307;DHT22;70775;50.846;3.224;2023-10-31T00:58:33;11.00;99.90
81307;DHT22;70775;50.846;3.224;2023-10-31T01:00:58;11.00;99.90
81307;DHT22;70775;50.846;3.224;2023-10-31T01:03:24;10.90;99.90
81307;DHT22;70775;50.846;3.224;2023-10-31T01:05:50;10.90;99.90
81307;DHT22;70775;50.846;3.224;2023-10-31T01:08:15;10.90;99.90
81307;DHT22;70775;50.846;3.224;2023-10-31T01:10:41;10.80;99.90
81307;DHT22;70775;50.846;3.224;2023-10-31T01:13:07;10.80;99.90
81307;DHT22;70775;50.846;3.224;2023-10-31T01:15:32;10.80;99.90
81307;DHT22;70775;50.846;3.224;2023-10-31T01:17:58;10.80;99.90
81307;DHT22;70775;50.846;3.224;2023-10-31T01:20:23;10.80;99.90
81307;DHT22;70775;50.846;3.224;2023-10-31T01:22:49;10.80;99.90
81307;DHT22;70775;50.846;3.224;2023-10-31T01:25:15;10.80;99.90
81307;DHT22;70775;50.846;3.224;2023-10-31T01:27:40;10.80;99.90
81307;DHT22;70775;50.846;3.224;2023-10-31T01:30:07;10.70;99.90
81307;DHT22;70775;50.846;3.224;2023-10-31T01:32:33;10.60;99.90
81307;DHT22;70775;50.846;3.224;2023-10-31T01:34:59;10.60;99.90
81307;DHT22;70775;50.846;3.224;2023-10-31T01:37:25;10.60;99.90
81307;DHT22;70775;50.846;3.224;2023-10-31T01:39:50;10.60;99.90
81307;DHT22;70775;50.846;3.224;2023-10-31T01:42:17;10.50;99.90
81307;DHT22;70775;50.846;3.224;2023-10-31T01:44:42;10.40;99.90
81307;DHT22;70775;50.846;3.224;2023-10-31T01:47:08;10.40;99.90
81307;DHT22;70775;50.846;3.224;2023-10-31T01:49:36;10.40;99.90
81307;DHT22;70775;50.846;3.224;2023-10-31T01:52:03;10.40;99.90
81307;DHT22;70775;50.846;3.224;2023-10-31T01:54:29;10.30;99.90
81307;DHT22;70775;50.846;3.224;2023-10-31T01:56:58;10.30;99.90
81307;DHT22;70775;50.846;3.224;2023-10-31T01:59:25;10.30;99.90
81307;DHT22;70775;50.846;3.224;2023-10-31T02:01:51;10.30;99.90
81307;DHT22;70775;50.846;3.224;2023-10-31T02:04:17;10.20;99.90
81307;DHT22;70775;50.846;3.224;2023-10-31T02:06:42;10.30;99.90
81307;DHT22;70775;50.846;3.224;2023-10-31T02:09:08;10.20;99.90
81307;DHT22;70775;50.846;3.224;2023-10-31T02:11:33;10.30;99.90
81307;DHT22;70775;50.846;3.224;2023-10-31T02:14:00;10.30;99.90
81307;DHT22;70775;50.846;3.224;2023-10-31T02:16:26;10.30;99.90
81307;DHT22;70775;50.846;3.224;2023-10-31T02:18:51;10.20;99.90
81307;DHT22;70775;50.846;3.224;2023-10-31T02:21:19;10.20;99.90
81307;DHT22;70775;50.846;3.224;2023-10-31T02:23:56;10.30;99.90
81307;DHT22;70775;50.846;3.224;2023-10-31T02:26:22;10.30;99.90
81307;DHT22;70775;50.846;3.224;2023-10-31T02:28:48;10.20;99.90
81307;DHT22;70775;50.846;3.224;2023-10-31T02:31:13;10.20;99.90
81307;DHT22;70775;50.846;3.224;2023-10-31T02:33:39;10.20;99.90
81307;DHT22;70775;50.846;3.224;2023-10-31T02:36:05;10.20;99.90
81307;DHT22;70775;50.846;3.224;2023-10-31T02:38:30;10.20;99.90
81307;DHT22;70775;50.846;3.224;2023-10-31T02:40:56;10.20;99.90
81307;DHT22;70775;50.846;3.224;2023-10-31T02:43:21;10.10;99.90
81307;DHT22;70775;50.846;3.224;2023-10-31T02:45:47;10.10;99.90
81307;DHT22;70775;50.846;3.224;2023-10-31T02:48:13;10.10;99.90
81307;DHT22;70775;50.846;3.224;2023-10-31T02:50:38;10.10;99.90
81307;DHT22;70775;50.846;3.224;2023-10-31T02:53:04;10.10;99.90
81307;DHT22;70775;50.846;3.224;2023-10-31T02:55:30;10.00;99.90
81307;DHT22;70775;50.846;3.224;2023-10-31T02:57:55;10.00;99.90
81307;DHT22;70775;50.846;3.224;2023-10-31T03:00:21;10.00;99.90
81307;DHT22;70775;50.846;3.224;2023-10-31T03:02:47;10.00;99.90
81307;DHT22;70775;50.846;3.224;2023-10-31T03:05:12;10.10;99.90
81307;DHT22;70775;50.846;3.224;2023-10-31T03:07:38;10.00;99.90
81307;DHT22;70775;50.846;3.224;2023-10-31T03:10:04;10.00;99.90
81307;DHT22;70775;50.846;3.224;2023-10-31T03:12:29;9.90;99.90
81307;DHT22;70775;50.846;3.224;2023-10-31T03:14:55;9.90;99.90
81307;DHT22;70775;50.846;3.224;2023-10-31T03:17:20;9.80;99.90
81307;DHT22;70775;50.846;3.224;2023-10-31T03:19:46;9.80;99.90
81307;DHT22;70775;50.846;3.224;2023-10-31T03:22:12;9.80;99.90
81307;DHT22;70775;50.846;3.224;2023-10-31T03:24:38;9.90;99.90
81307;DHT22;70775;50.846;3.224;2023-10-31T03:27:04;9.80;99.90
81307;DHT22;70775;50.846;3.224;2023-10-31T03:29:30;9.80;99.90
81307;DHT22;70775;50.846;3.224;2023-10-31T03:31:55;9.90;99.90
81307;DHT22;70775;50.846;3.224;2023-10-31T03:34:21;9.90;99.90
81307;DHT22;70775;50.846;3.224;2023-10-31T03:36:46;9.90;99.90
81307;DHT22;70775;50.846;3.224;2023-10-31T03:39:12;9.90;99.90
81307;DHT22;70775;50.846;3.224;2023-10-31T03:41:37;9.90;99.90
81307;DHT22;70775;50.846;3.224;2023-10-31T03:44:03;9.90;99.90
81307;DHT22;70775;50.846;3.224;2023-10-31T03:46:29;9.80;99.90
81307;DHT22;70775;50.846;3.224;2023-10-31T03:48:54;9.90;99.90
81307;DHT22;70775;50.846;3.224;2023-10-31T03:51:20;9.90;99.90
81307;DHT22;70775;50.846;3.224;2023-10-31T03:53:45;9.90;99.90
81307;DHT22;70775;50.846;3.224;2023-10-31T03:56:11;9.90;99.90
81307;DHT22;70775;50.846;3.224;2023-10-31T03:58:37;10.00;99.90
81307;DHT22;70775;50.846;3.224;2023-10-31T04:01:02;9.90;99.90
81307;DHT22;70775;50.846;3.224;2023-10-31T04:03:28;10.00;99.90
81307;DHT22;70775;50.846;3.224;2023-10-31T04:05:54;9.90;99.90
81307;DHT22;70775;50.846;3.224;2023-10-31T04:08:19;10.00;99.90
81307;DHT22;70775;50.846;3.224;2023-10-31T04:10:45;10.00;99.90
81307;DHT22;70775;50.846;3.224;2023-10-31T04:13:10;10.00;99.90
81307;DHT22;70775;50.846;3.224;2023-10-31T04:15:36;10.10;99.90
81307;DHT22;70775;50.846;3.224;2023-10-31T04:18:02;10.10;99.90
81307;DHT22;70775;50.846;3.224;2023-10-31T04:20:28;10.20;99.90
81307;DHT22;70775;50.846;3.224;2023-10-31T04:22:54;10.10;99.90
81307;DHT22;70775;50.846;3.224;2023-10-31T04:25:19;10.10;99.90
81307;DHT22;70775;50.846;3.224;2023-10-31T04:27:45;10.10;99.90
81307;DHT22;70775;50.846;3.224;2023-10-31T04:30:11;10.10;99.90
81307;DHT22;70775;50.846;3.224;2023-10-31T04:32:37;10.10;99.90
81307;DHT22;70775;50.846;3.224;2023-10-31T04:35:02;10.10;99.90
81307;DHT22;70775;50.846;3.224;2023-10-31T04:37:28;10.20;99.90
81307;DHT22;70775;50.846;3.224;2023-10-31T04:39:54;10.30;99.90
81307;DHT22;70775;50.846;3.224;2023-10-31T04:42:19;10.20;99.90
81307;DHT22;70775;50.846;3.224;2023-10-31T04:44:46;10.20;99.90
81307;DHT22;70775;50.846;3.224;2023-10-31T04:47:11;10.20;99.90
81307;DHT22;70775;50.846;3.224;2023-10-31T04:49:37;10.10;99.90
81307;DHT22;70775;50.846;3.224;2023-10-31T04:52:03;10.10;99.90
81307;DHT22;70775;50.846;3.224;2023-10-31T04:54:28;10.10;99.90
81307;DHT22;70775;50.846;3.224;2023-10-31T04:56:54;10.20;99.90
81307;DHT22;70775;50.846;3.224;2023-10-31T04:59:19;10.20;99.90
81307;DHT22;70775;50.846;3.224;2023-10-31T05:01:49;10.10;99.90
81307;DHT22;70775;50.846;3.224;2023-10-31T05:04:15;10.00;99.90
81307;DHT22;70775;50.846;3.224;2023-10-31T05:06:41;10.10;99.90
81307;DHT22;70775;50.846;3.224;2023-10-31T05:09:07;10.00;99.90
81307;DHT22;70775;50.846;3.224;2023-10-31T05:11:33;10.10;99.90
81307;DHT22;70775;50.846;3.224;2023-10-31T05:13:58;10.10;99.90
81307;DHT22;70775;50.846;3.224;2023-10-31T05:16:24;10.10;99.90
81307;DHT22;70775;50.846;3.224;2023-10-31T05:18:50;10.20;99.90
81307;DHT22;70775;50.846;3.224;2023-10-31T05:21:19;10.20;99.90
81307;DHT22;70775;50.846;3.224;2023-10-31T05:23:46;10.20;99.90
81307;DHT22;70775;50.846;3.224;2023-10-31T05:26:11;10.30;99.90
81307;DHT22;70775;50.846;3.224;2023-10-31T05:28:37;10.40;99.90
81307;DHT22;70775;50.846;3.224;2023-10-31T05:31:03;10.30;99.90
81307;DHT22;70775;50.846;3.224;2023-10-31T05:33:28;10.30;99.90
81307;DHT22;70775;50.846;3.224;2023-10-31T05:35:54;10.40;99.90
81307;DHT22;70775;50.846;3.224;2023-10-31T05:38:20;10.40;99.90
81307;DHT22;70775;50.846;3.224;2023-10-31T05:40:46;10.30;99.90
81307;DHT22;70775;50.846;3.224;2023-10-31T05:43:11;10.40;99.90
81307;DHT22;70775;50.846;3.224;2023-10-31T05:45:37;10.30;99.90
81307;DHT22;70775;50.846;3.224;2023-10-31T05:48:02;10.30;99.90
81307;DHT22;70775;50.846;3.224;2023-10-31T05:50:29;10.30;99.90
81307;DHT22;70775;50.846;3.224;2023-10-31T05:52:54;10.30;99.90
81307;DHT22;70775;50.846;3.224;2023-10-31T05:55:20;10.30;99.90
81307;DHT22;70775;50.846;3.224;2023-10-31T05:57:46;10.40;99.90
81307;DHT22;70775;50.846;3.224;2023-10-31T06:00:11;10.40;99.90
81307;DHT22;70775;50.846;3.224;2023-10-31T06:02:37;10.40;99.90
81307;DHT22;70775;50.846;3.224;2023-10-31T06:05:03;10.40;99.90
81307;DHT22;70775;50.846;3.224;2023-10-31T06:07:29;10.40;99.90
81307;DHT22;70775;50.846;3.224;2023-10-31T06:09:55;10.40;99.90
81307;DHT22;70775;50.846;3.224;2023-10-31T06:12:21;10.40;99.90
81307;DHT22;70775;50.846;3.224;2023-10-31T06:14:47;10.40;99.90
81307;DHT22;70775;50.846;3.224;2023-10-31T06:17:12;10.40;99.90
81307;DHT22;70775;50.846;3.224;2023-10-31T06:19:38;10.30;99.90
81307;DHT22;70775;50.846;3.224;2023-10-31T06:22:04;10.20;99.90
81307;DHT22;70775;50.846;3.224;2023-10-31T06:24:29;10.30;99.90
81307;DHT22;70775;50.846;3.224;2023-10-31T06:26:55;10.30;99.90
81307;DHT22;70775;50.846;3.224;2023-10-31T06:29:21;10.30;99.90
81307;DHT22;70775;50.846;3.224;2023-10-31T06:31:46;10.40;99.90
81307;DHT22;70775;50.846;3.224;2023-10-31T06:34:12;10.30;99.90
81307;DHT22;70775;50.846;3.224;2023-10-31T06:36:38;10.40;99.90
81307;DHT22;70775;50.846;3.224;2023-10-31T06:39:04;10.50;99.90
81307;DHT22;70775;50.846;3.224;2023-10-31T06:41:29;10.40;99.80
81307;DHT22;70775;50.846;3.224;2023-10-31T06:43:55;10.40;99.90
81307;DHT22;70775;50.846;3.224;2023-10-31T06:46:20;10.50;99.90
81307;DHT22;70775;50.846;3.224;2023-10-31T06:48:46;10.50;99.70
81307;DHT22;70775;50.846;3.224;2023-10-31T06:51:12;10.40;99.70
81307;DHT22;70775;50.846;3.224;2023-10-31T06:53:37;10.50;99.90
81307;DHT22;70775;50.846;3.224;2023-10-31T06:56:05;10.50;99.40
81307;DHT22;70775;50.846;3.224;2023-10-31T06:58:31;10.40;99.60
81307;DHT22;70775;50.846;3.224;2023-10-31T07:00:56;10.50;99.60
81307;DHT22;70775;50.846;3.224;2023-10-31T07:03:23;10.60;99.30
81307;DHT22;70775;50.846;3.224;2023-10-31T07:05:49;10.60;99.20
81307;DHT22;70775;50.846;3.224;2023-10-31T07:08:15;10.50;99.20
81307;DHT22;70775;50.846;3.224;2023-10-31T07:10:40;10.50;99.20
81307;DHT22;70775;50.846;3.224;2023-10-31T07:13:06;10.30;99.40
81307;DHT22;70775;50.846;3.224;2023-10-31T07:15:31;10.30;99.60
81307;DHT22;70775;50.846;3.224;2023-10-31T07:17:57;10.10;99.90
81307;DHT22;70775;50.846;3.224;2023-10-31T07:20:23;10.20;99.90
81307;DHT22;70775;50.846;3.224;2023-10-31T07:22:48;10.20;99.80
81307;DHT22;70775;50.846;3.224;2023-10-31T07:25:14;10.20;99.90
81307;DHT22;70775;50.846;3.224;2023-10-31T07:27:40;10.20;99.90
81307;DHT22;70775;50.846;3.224;2023-10-31T07:30:06;10.20;99.90
81307;DHT22;70775;50.846;3.224;2023-10-31T07:32:32;10.30;99.90
81307;DHT22;70775;50.846;3.224;2023-10-31T07:34:58;10.30;99.90
81307;DHT22;70775;50.846;3.224;2023-10-31T07:37:23;10.30;99.90
81307;DHT22;70775;50.846;3.224;2023-10-31T07:39:49;10.30;99.90
81307;DHT22;70775;50.846;3.224;2023-10-31T07:42:16;10.30;99.90
81307;DHT22;70775;50.846;3.224;2023-10-31T07:44:42;10.30;99.90
81307;DHT22;70775;50.846;3.224;2023-10-31T07:47:07;10.30;99.90
81307;DHT22;70775;50.846;3.224;2023-10-31T07:49:33;10.30;99.90
81307;DHT22;70775;50.846;3.224;2023-10-31T07:51:59;10.30;99.90
81307;DHT22;70775;50.846;3.224;2023-10-31T07:54:24;10.30;99.90
81307;DHT22;70775;50.846;3.224;2023-10-31T07:56:50;10.30;99.90
81307;DHT22;70775;50.846;3.224;2023-10-31T07:59:15;10.40;99.90
81307;DHT22;70775;50.846;3.224;2023-10-31T08:01:41;10.40;99.90
81307;DHT22;70775;50.846;3.224;2023-10-31T08:04:06;10.50;99.90
81307;DHT22;70775;50.846;3.224;2023-10-31T08:06:32;10.50;99.90
81307;DHT22;70775;50.846;3.224;2023-10-31T08:08:57;10.50;99.90
81307;DHT22;70775;50.846;3.224;2023-10-31T08:11:25;10.50;99.90
81307;DHT22;70775;50.846;3.224;2023-10-31T08:13:52;10.60;99.90
81307;DHT22;70775;50.846;3.224;2023-10-31T08:16:18;10.60;99.90
81307;DHT22;70775;50.846;3.224;2023-10-31T08:18:47;10.60;99.90
81307;DHT22;70775;50.846;3.224;2023-10-31T08:21:13;10.60;99.90
81307;DHT22;70775;50.846;3.224;2023-10-31T08:23:39;10.60;99.90
81307;DHT22;70775;50.846;3.224;2023-10-31T08:26:04;10.60;99.90
81307;DHT22;70775;50.846;3.224;2023-10-31T08:28:30;10.60;99.90
81307;DHT22;70775;50.846;3.224;2023-10-31T08:30:57;10.60;99.90
81307;DHT22;70775;50.846;3.224;2023-10-31T08:33:23;10.60;99.90
81307;DHT22;70775;50.846;3.224;2023-10-31T08:35:49;10.60;99.90
81307;DHT22;70775;50.846;3.224;2023-10-31T08:38:14;10.60;99.90
81307;DHT22;70775;50.846;3.224;2023-10-31T08:40:41;10.50;99.90
81307;DHT22;70775;50.846;3.224;2023-10-31T08:43:06;10.50;99.90
81307;DHT22;70775;50.846;3.224;2023-10-31T08:45:33;10.40;99.90
81307;DHT22;70775;50.846;3.224;2023-10-31T08:47:59;10.50;99.90
81307;DHT22;70775;50.846;3.224;2023-10-31T08:50:24;10.40;99.90
81307;DHT22;70775;50.846;3.224;2023-10-31T08:52:50;10.40;99.90
81307;DHT22;70775;50.846;3.224;2023-10-31T08:55:16;10.40;99.90
81307;DHT22;70775;50.846;3.224;2023-10-31T08:57:41;10.40;99.90
81307;DHT22;70775;50.846;3.224;2023-10-31T09:00:07;10.40;99.90
81307;DHT22;70775;50.846;3.224;2023-10-31T09:02:33;10.30;99.90
81307;DHT22;70775;50.846;3.224;2023-10-31T09:04:59;10.30;99.90
81307;DHT22;70775;50.846;3.224;2023-10-31T09:07:24;10.30;99.90
81307;DHT22;70775;50.846;3.224;2023-10-31T09:09:50;10.30;99.90
81307;DHT22;70775;50.846;3.224;2023-10-31T09:12:16;10.40;99.90
81307;DHT22;70775;50.846;3.224;2023-10-31T09:14:41;10.40;99.90
81307;DHT22;70775;50.846;3.224;2023-10-31T09:17:07;10.50;99.90
81307;DHT22;70775;50.846;3.224;2023-10-31T09:19:33;10.50;99.90
81307;DHT22;70775;50.846;3.224;2023-10-31T09:21:58;10.40;99.90
81307;DHT22;70775;50.846;3.224;2023-10-31T09:24:43;10.40;99.90
81307;DHT22;70775;50.846;3.224;2023-10-31T09:27:09;10.40;99.90
81307;DHT22;70775;50.846;3.224;2023-10-31T09:29:35;10.50;99.90
81307;DHT22;70775;50.846;3.224;2023-10-31T09:32:01;10.50;99.90
81307;DHT22;70775;50.846;3.224;2023-10-31T09:34:27;10.50;99.90
81307;DHT22;70775;50.846;3.224;2023-10-31T09:36:52;10.60;99.90
81307;DHT22;70775;50.846;3.224;2023-10-31T09:39:18;10.70;99.90
81307;DHT22;70775;50.846;3.224;2023-10-31T09:41:44;10.70;99.90
81307;DHT22;70775;50.846;3.224;2023-10-31T09:44:09;10.70;99.90
81307;DHT22;70775;50.846;3.224;2023-10-31T09:46:35;10.70;99.90
81307;DHT22;70775;50.846;3.224;2023-10-31T09:49:02;10.70;99.90
81307;DHT22;70775;50.846;3.224;2023-10-31T09:51:28;10.70;99.90
81307;DHT22;70775;50.846;3.224;2023-10-31T09:53:54;10.80;99.90
81307;DHT22;70775;50.846;3.224;2023-10-31T09:56:21;10.80;99.90
81307;DHT22;70775;50.846;3.224;2023-10-31T09:58:47;10.90;99.90
81307;DHT22;70775;50.846;3.224;2023-10-31T10:01:13;10.90;99.90
81307;DHT22;70775;50.846;3.224;2023-10-31T10:03:40;11.00;99.90
81307;DHT22;70775;50.846;3.224;2023-10-31T10:06:06;11.00;99.90
81307;DHT22;70775;50.846;3.224;2023-10-31T10:08:32;11.00;99.90
81307;DHT22;70775;50.846;3.224;2023-10-31T10:11:02;11.00;99.90
81307;DHT22;70775;50.846;3.224;2023-10-31T10:13:28;11.10;99.90
81307;DHT22;70775;50.846;3.224;2023-10-31T10:15:53;11.10;99.90
81307;DHT22;70775;50.846;3.224;2023-10-31T10:18:33;11.00;99.90
81307;DHT22;70775;50.846;3.224;2023-10-31T10:21:02;11.10;99.90
81307;DHT22;70775;50.846;3.224;2023-10-31T10:23:29;11.10;99.90
81307;DHT22;70775;50.846;3.224;2023-10-31T10:25:56;11.10;99.90
81307;DHT22;70775;50.846;3.224;2023-10-31T10:28:23;11.00;99.90
81307;DHT22;70775;50.846;3.224;2023-10-31T10:30:52;11.00;99.90
81307;DHT22;70775;50.846;3.224;2023-10-31T10:33:19;11.00;99.90
81307;DHT22;70775;50.846;3.224;2023-10-31T10:35:45;11.00;99.90
81307;DHT22;70775;50.846;3.224;2023-10-31T10:38:15;11.00;99.90
81307;DHT22;70775;50.846;3.224;2023-10-31T10:40:43;11.00;99.90
81307;DHT22;70775;50.846;3.224;2023-10-31T10:43:22;11.00;99.90
81307;DHT22;70775;50.846;3.224;2023-10-31T10:48:20;11.10;99.90
81307;DHT22;70775;50.846;3.224;2023-10-31T10:50:52;11.20;99.90
81307;DHT22;70775;50.846;3.224;2023-10-31T10:53:23;11.20;99.90
81307;DHT22;70775;50.846;3.224;2023-10-31T10:55:55;11.30;99.90
81307;DHT22;70775;50.846;3.224;2023-10-31T10:58:34;11.30;99.90
81307;DHT22;70775;50.846;3.224;2023-10-31T11:01:03;11.30;99.90
81307;DHT22;70775;50.846;3.224;2023-10-31T11:03:29;11.30;99.90
81307;DHT22;70775;50.846;3.224;2023-10-31T11:05:55;11.30;99.90
81307;DHT22;70775;50.846;3.224;2023-10-31T11:08:23;11.40;99.90
81307;DHT22;70775;50.846;3.224;2023-10-31T11:10:51;11.40;99.90
81307;DHT22;70775;50.846;3.224;2023-10-31T11:13:17;11.50;99.90
81307;DHT22;70775;50.846;3.224;2023-10-31T11:15:43;11.60;99.90
81307;DHT22;70775;50.846;3.224;2023-10-31T11:18:09;11.70;99.90
81307;DHT22;70775;50.846;3.224;2023-10-31T11:20:36;11.90;99.90
81307;DHT22;70775;50.846;3.224;2023-10-31T11:23:02;11.90;99.90
81307;DHT22;70775;50.846;3.224;2023-10-31T11:25:32;12.00;99.90
81307;DHT22;70775;50.846;3.224;2023-10-31T11:28:14;12.00;99.90
81307;DHT22;70775;50.846;3.224;2023-10-31T11:30:41;12.10;99.90
81307;DHT22;70775;50.846;3.224;2023-10-31T11:33:15;12.20;99.90
81307;DHT22;70775;50.846;3.224;2023-10-31T11:35:41;12.20;99.90
81307;DHT22;70775;50.846;3.224;2023-10-31T11:38:10;12.30;99.90
81307;DHT22;70775;50.846;3.224;2023-10-31T11:43:12;12.30;99.90
81307;DHT22;70775;50.846;3.224;2023-10-31T11:48:13;12.40;99.90
81307;DHT22;70775;50.846;3.224;2023-10-31T11:50:39;12.40;99.90
81307;DHT22;70775;50.846;3.224;2023-10-31T11:55:35;12.40;99.90
81307;DHT22;70775;50.846;3.224;2023-10-31T12:00:41;12.40;99.90
81307;DHT22;70775;50.846;3.224;2023-10-31T12:03:07;12.40;99.90
81307;DHT22;70775;50.846;3.224;2023-10-31T12:05:33;12.50;99.90
81307;DHT22;70775;50.846;3.224;2023-10-31T12:07:59;12.50;99.90
81307;DHT22;70775;50.846;3.224;2023-10-31T12:10:26;12.60;99.90
81307;DHT22;70775;50.846;3.224;2023-10-31T12:12:56;12.60;99.90
81307;DHT22;70775;50.846;3.224;2023-10-31T12:15:24;12.70;99.90
81307;DHT22;70775;50.846;3.224;2023-10-31T12:17:49;12.70;99.90
81307;DHT22;70775;50.846;3.224;2023-10-31T12:20:16;12.80;99.90
81307;DHT22;70775;50.846;3.224;2023-10-31T12:22:42;12.90;99.90
81307;DHT22;70775;50.846;3.224;2023-10-31T12:25:09;13.10;99.90
81307;DHT22;70775;50.846;3.224;2023-10-31T12:27:50;13.20;99.90
81307;DHT22;70775;50.846;3.224;2023-10-31T12:30:17;13.30;98.90
81307;DHT22;70775;50.846;3.224;2023-10-31T12:32:44;13.20;99.70
81307;DHT22;70775;50.846;3.224;2023-10-31T12:35:13;13.30;99.50
81307;DHT22;70775;50.846;3.224;2023-10-31T12:37:44;13.30;98.90
81307;DHT22;70775;50.846;3.224;2023-10-31T12:40:12;13.30;99.20
81307;DHT22;70775;50.846;3.224;2023-10-31T12:42:41;13.40;98.50
81307;DHT22;70775;50.846;3.224;2023-10-31T12:45:07;13.50;98.30
81307;DHT22;70775;50.846;3.224;2023-10-31T12:47:33;13.60;98.40
81307;DHT22;70775;50.846;3.224;2023-10-31T12:50:11;13.70;97.90
81307;DHT22;70775;50.846;3.224;2023-10-31T12:52:47;14.00;98.70
81307;DHT22;70775;50.846;3.224;2023-10-31T12:55:19;14.00;97.30
81307;DHT22;70775;50.846;3.224;2023-10-31T12:57:46;14.30;97.60
81307;DHT22;70775;50.846;3.224;2023-10-31T13:00:13;14.60;96.40
81307;DHT22;70775;50.846;3.224;2023-10-31T13:02:39;14.80;97.00
81307;DHT22;70775;50.846;3.224;2023-10-31T13:07:35;15.00;95.30
81307;DHT22;70775;50.846;3.224;2023-10-31T13:10:01;14.90;95.90
81307;DHT22;70775;50.846;3.224;2023-10-31T13:12:26;14.80;95.70
81307;DHT22;70775;50.846;3.224;2023-10-31T13:14:53;14.60;95.30
81307;DHT22;70775;50.846;3.224;2023-10-31T13:17:19;14.40;95.90
81307;DHT22;70775;50.846;3.224;2023-10-31T13:19:44;14.30;97.10
81307;DHT22;70775;50.846;3.224;2023-10-31T13:22:10;14.40;97.40
81307;DHT22;70775;50.846;3.224;2023-10-31T13:24:35;14.40;97.10
81307;DHT22;70775;50.846;3.224;2023-10-31T13:27:01;14.40;96.70
81307;DHT22;70775;50.846;3.224;2023-10-31T13:29:28;14.60;96.60
81307;DHT22;70775;50.846;3.224;2023-10-31T13:31:54;14.60;96.10
81307;DHT22;70775;50.846;3.224;2023-10-31T13:34:20;14.60;96.30
81307;DHT22;70775;50.846;3.224;2023-10-31T13:36:46;15.00;96.00
81307;DHT22;70775;50.846;3.224;2023-10-31T13:39:12;15.30;94.70
81307;DHT22;70775;50.846;3.224;2023-10-31T13:41:37;15.50;95.10
81307;DHT22;70775;50.846;3.224;2023-10-31T13:44:04;15.50;94.90
81307;DHT22;70775;50.846;3.224;2023-10-31T13:46:30;15.40;95.10
81307;DHT22;70775;50.846;3.224;2023-10-31T13:48:55;15.40;94.60
81307;DHT22;70775;50.846;3.224;2023-10-31T13:51:21;15.30;94.30
81307;DHT22;70775;50.846;3.224;2023-10-31T13:53:46;15.00;94.80
81307;DHT22;70775;50.846;3.224;2023-10-31T13:56:12;14.80;95.40
81307;DHT22;70775;50.846;3.224;2023-10-31T13:58:37;14.70;95.60
81307;DHT22;70775;50.846;3.224;2023-10-31T14:01:03;14.70;96.10
81307;DHT22;70775;50.846;3.224;2023-10-31T14:03:29;14.60;95.90
81307;DHT22;70775;50.846;3.224;2023-10-31T14:05:54;14.50;96.10
81307;DHT22;70775;50.846;3.224;2023-10-31T14:08:20;14.50;96.20
81307;DHT22;70775;50.846;3.224;2023-10-31T14:10:46;14.60;96.40
81307;DHT22;70775;50.846;3.224;2023-10-31T14:13:13;14.70;96.00
81307;DHT22;70775;50.846;3.224;2023-10-31T14:15:38;14.60;95.90
81307;DHT22;70775;50.846;3.224;2023-10-31T14:18:04;14.50;96.50
81307;DHT22;70775;50.846;3.224;2023-10-31T14:20:29;14.60;96.40
81307;DHT22;70775;50.846;3.224;2023-10-31T14:22:55;14.90;96.00
81307;DHT22;70775;50.846;3.224;2023-10-31T14:25:21;15.10;95.30
81307;DHT22;70775;50.846;3.224;2023-10-31T14:27:46;15.20;95.40
81307;DHT22;70775;50.846;3.224;2023-10-31T14:30:13;15.30;94.70
81307;DHT22;70775;50.846;3.224;2023-10-31T14:32:39;15.30;94.90
81307;DHT22;70775;50.846;3.224;2023-10-31T14:35:06;15.20;95.10
81307;DHT22;70775;50.846;3.224;2023-10-31T14:37:32;15.00;95.20
81307;DHT22;70775;50.846;3.224;2023-10-31T14:39:58;14.90;95.60
81307;DHT22;70775;50.846;3.224;2023-10-31T14:42:24;14.80;95.80
81307;DHT22;70775;50.846;3.224;2023-10-31T14:44:50;14.70;96.20
81307;DHT22;70775;50.846;3.224;2023-10-31T14:47:16;14.80;96.30
81307;DHT22;70775;50.846;3.224;2023-10-31T14:49:41;14.80;96.10
81307;DHT22;70775;50.846;3.224;2023-10-31T14:52:07;14.80;96.00
81307;DHT22;70775;50.846;3.224;2023-10-31T14:54:33;14.70;96.20
81307;DHT22;70775;50.846;3.224;2023-10-31T14:57:01;14.60;96.90
81307;DHT22;70775;50.846;3.224;2023-10-31T14:59:26;14.50;96.50
81307;DHT22;70775;50.846;3.224;2023-10-31T15:01:52;14.50;96.50
81307;DHT22;70775;50.846;3.224;2023-10-31T15:04:17;14.40;96.70
81307;DHT22;70775;50.846;3.224;2023-10-31T15:06:43;14.30;97.20
81307;DHT22;70775;50.846;3.224;2023-10-31T15:09:09;14.40;97.10
81307;DHT22;70775;50.846;3.224;2023-10-31T15:11:35;14.40;97.30
81307;DHT22;70775;50.846;3.224;2023-10-31T15:14:01;14.30;97.40
81307;DHT22;70775;50.846;3.224;2023-10-31T15:16:28;14.40;98.10
81307;DHT22;70775;50.846;3.224;2023-10-31T15:18:53;14.40;97.70
81307;DHT22;70775;50.846;3.224;2023-10-31T15:21:19;14.30;97.50
81307;DHT22;70775;50.846;3.224;2023-10-31T15:23:45;14.20;98.00
81307;DHT22;70775;50.846;3.224;2023-10-31T15:26:11;14.20;98.10
81307;DHT22;70775;50.846;3.224;2023-10-31T15:28:42;14.00;98.30
81307;DHT22;70775;50.846;3.224;2023-10-31T15:31:08;14.00;98.60
81307;DHT22;70775;50.846;3.224;2023-10-31T15:33:34;14.00;98.60
81307;DHT22;70775;50.846;3.224;2023-10-31T15:35:59;14.00;98.90
81307;DHT22;70775;50.846;3.224;2023-10-31T15:38:25;13.90;99.00
81307;DHT22;70775;50.846;3.224;2023-10-31T15:40:52;13.90;99.00